createdAt,value
2023-04-17T00:00:07.318Z,83.90
2023-04-17T00:02:55.503Z,84.23
2023-04-17T00:05:26.883Z,84.30
2023-04-17T00:07:55.093Z,84.40
2023-04-17T00:10:23.156Z,84.72
2023-04-17T00:12:51.638Z,84.54
2023-04-17T00:15:19.829Z,83.87
2023-04-17T00:17:48.112Z,84.09
2023-04-17T00:20:16.659Z,84.57
2023-04-17T00:22:44.726Z,85.00
2023-04-17T00:25:15.076Z,85.33
2023-04-17T00:27:43.222Z,84.81
2023-04-17T00:30:11.811Z,84.41
2023-04-17T00:32:39.785Z,84.69
2023-04-17T00:35:08.327Z,84.76
2023-04-17T00:37:36.539Z,85.18
2023-04-17T00:40:05.225Z,84.43
2023-04-17T00:42:33.402Z,84.57
2023-04-17T00:45:01.681Z,84.71
2023-04-17T00:47:30.119Z,84.89
2023-04-17T00:49:58.904Z,85.10
2023-04-17T00:52:30.527Z,85.00
2023-04-17T00:55:00.157Z,84.74
2023-04-17T00:57:28.998Z,84.56
2023-04-17T00:59:58.425Z,84.91
2023-04-17T01:02:27.166Z,84.75
2023-04-17T01:04:55.663Z,84.97
2023-04-17T01:07:24.557Z,85.45
2023-04-17T01:09:52.618Z,84.70
2023-04-17T01:12:24.917Z,84.55
2023-04-17T01:14:54.727Z,84.62
2023-04-17T01:17:26.275Z,84.87
2023-04-17T01:19:55.669Z,85.22
2023-04-17T01:22:23.938Z,84.92
2023-04-17T01:24:53.027Z,85.00
2023-04-17T01:27:22.763Z,84.32
2023-04-17T01:29:51.059Z,84.12
2023-04-17T01:32:20.046Z,83.93
2023-04-17T01:34:48.255Z,84.06
2023-04-17T01:37:16.454Z,83.76
2023-04-17T01:39:44.403Z,83.74
2023-04-17T01:42:12.467Z,83.76
2023-04-17T01:44:40.433Z,84.08
2023-04-17T01:47:08.754Z,84.51
2023-04-17T01:49:36.911Z,85.15
2023-04-17T01:52:05.803Z,85.67
2023-04-17T01:54:34.002Z,85.81
2023-04-17T01:57:02.737Z,85.47
2023-04-17T01:59:30.818Z,85.15
2023-04-17T02:01:59.092Z,85.40
2023-04-17T02:04:28.022Z,84.86
2023-04-17T02:06:56.480Z,84.86
2023-04-17T02:09:25.067Z,85.11
2023-04-17T02:11:53.325Z,85.16
2023-04-17T02:14:21.403Z,84.81
2023-04-17T02:16:50.234Z,84.08
2023-04-17T02:19:18.353Z,84.20
2023-04-17T02:21:46.328Z,84.12
2023-04-17T02:24:14.401Z,84.12
2023-04-17T02:26:42.865Z,84.16
2023-04-17T02:29:14.077Z,84.53
2023-04-17T02:31:43.312Z,84.97
2023-04-17T02:34:12.822Z,84.71
2023-04-17T02:36:41.627Z,84.84
2023-04-17T02:39:10.302Z,85.19
2023-04-17T02:41:40.793Z,85.24
2023-04-17T02:44:09.711Z,86.08
2023-04-17T02:46:37.746Z,86.26
2023-04-17T02:49:05.951Z,86.11
2023-04-17T02:51:34.343Z,86.09
2023-04-17T02:54:02.728Z,85.47
2023-04-17T02:56:30.918Z,84.96
2023-04-17T02:58:59.165Z,84.98
2023-04-17T03:01:28.226Z,85.03
2023-04-17T03:03:57.083Z,85.22
2023-04-17T03:06:26.908Z,85.35
2023-04-17T03:08:55.133Z,85.34
2023-04-17T03:11:23.916Z,85.11
2023-04-17T03:13:52.190Z,85.88
2023-04-17T03:16:20.302Z,85.95
2023-04-17T03:18:48.441Z,86.04
2023-04-17T03:21:16.714Z,86.09
2023-04-17T03:23:44.793Z,85.92
2023-04-17T03:26:14.400Z,85.54
2023-04-17T03:28:43.295Z,85.86
2023-04-17T03:31:11.350Z,85.86
2023-04-17T03:33:39.622Z,85.86
2023-04-17T03:36:08.338Z,86.08
2023-04-17T03:38:37.110Z,86.01
2023-04-17T03:41:06.104Z,85.81
2023-04-17T03:43:34.169Z,85.63
2023-04-17T03:46:02.488Z,85.81
2023-04-17T03:48:31.426Z,85.33
2023-04-17T03:50:59.621Z,85.01
2023-04-17T03:53:31.172Z,85.00
2023-04-17T03:56:00.959Z,85.06
2023-04-17T03:58:33.849Z,85.76
2023-04-17T04:01:02.238Z,86.46
2023-04-17T04:03:32.827Z,86.16
2023-04-17T04:06:01.034Z,86.10
2023-04-17T04:08:30.059Z,86.04
2023-04-17T04:10:58.201Z,85.84
2023-04-17T04:13:34.361Z,85.53
2023-04-17T04:16:03.401Z,85.14
2023-04-17T04:18:32.374Z,85.35
2023-04-17T04:21:00.411Z,86.19
2023-04-17T04:23:33.828Z,86.28
2023-04-17T04:26:02.187Z,86.10
2023-04-17T04:28:50.438Z,85.43
2023-04-17T04:31:29.764Z,86.02
2023-04-17T04:33:59.776Z,86.23
2023-04-17T04:36:30.393Z,86.28
2023-04-17T04:39:08.727Z,85.62
2023-04-17T04:41:38.433Z,86.02
2023-04-17T04:44:08.856Z,86.50
2023-04-17T04:46:37.826Z,86.59
2023-04-17T04:49:06.885Z,86.38
2023-04-17T04:51:36.955Z,86.29
2023-04-17T04:54:07.263Z,86.86
2023-04-17T04:56:40.674Z,86.91
2023-04-17T04:59:09.612Z,87.09
2023-04-17T05:01:39.976Z,86.87
2023-04-17T05:04:08.712Z,86.81
2023-04-17T05:06:36.954Z,86.86
2023-04-17T05:09:04.946Z,87.14
2023-04-17T05:11:34.354Z,86.89
2023-04-17T05:14:02.702Z,87.14
2023-04-17T05:16:33.073Z,86.67
2023-04-17T05:19:01.201Z,86.84
2023-04-17T05:21:55.798Z,86.51
2023-04-17T05:24:24.077Z,85.94
2023-04-17T05:26:53.900Z,86.45
2023-04-17T05:29:22.053Z,86.15
2023-04-17T05:31:51.347Z,86.15
2023-04-17T05:34:32.602Z,86.37
2023-04-17T05:37:01.041Z,86.65
2023-04-17T05:39:29.807Z,86.73
2023-04-17T05:41:58.170Z,87.60
2023-04-17T05:44:26.446Z,87.64
2023-04-17T05:46:57.539Z,88.29
2023-04-17T05:49:26.688Z,87.46
2023-04-17T05:51:54.861Z,87.27
2023-04-17T05:54:23.131Z,87.36
2023-04-17T05:56:52.028Z,87.87
2023-04-17T05:59:21.279Z,87.83
2023-04-17T06:01:49.446Z,87.58
2023-04-17T06:04:21.226Z,87.33
2023-04-17T06:06:51.157Z,86.91
2023-04-17T06:09:19.557Z,86.93
2023-04-17T06:11:47.817Z,86.85
2023-04-17T06:14:16.128Z,86.38
2023-04-17T06:16:44.997Z,86.16
2023-04-17T06:19:13.469Z,85.99
2023-04-17T06:21:41.701Z,85.72
2023-04-17T06:24:09.812Z,85.31
2023-04-17T06:26:37.773Z,85.02
2023-04-17T06:29:06.083Z,85.06
2023-04-17T06:31:34.974Z,85.22
2023-04-17T06:34:03.519Z,85.57
2023-04-17T06:36:34.163Z,85.89
2023-04-17T06:39:04.784Z,86.33
2023-04-17T06:41:33.800Z,86.32
2023-04-17T06:44:02.086Z,85.93
2023-04-17T06:46:44.993Z,85.39
2023-04-17T06:49:13.356Z,85.82
2023-04-17T06:51:41.731Z,85.33
2023-04-17T06:54:10.906Z,84.98
2023-04-17T06:56:38.981Z,85.02
2023-04-17T06:59:07.788Z,85.12
2023-04-17T07:01:38.142Z,85.20
2023-04-17T07:04:07.141Z,85.09
2023-04-17T07:06:36.608Z,84.43
2023-04-17T07:09:04.777Z,84.18
2023-04-17T07:11:33.045Z,84.36
2023-04-17T07:14:01.452Z,84.15
2023-04-17T07:16:29.501Z,84.57
2023-04-17T07:18:57.674Z,84.07
2023-04-17T07:21:27.086Z,83.36
2023-04-17T07:23:55.256Z,82.85
2023-04-17T07:26:23.178Z,81.82
2023-04-17T07:28:51.601Z,81.59
2023-04-17T07:31:19.850Z,80.05
2023-04-17T07:33:47.913Z,80.40
2023-04-17T07:36:17.229Z,79.70
2023-04-17T07:38:45.407Z,79.37
2023-04-17T07:41:13.738Z,77.90
2023-04-17T07:43:42.117Z,77.56
2023-04-17T07:46:10.452Z,77.81
2023-04-17T07:48:39.856Z,77.02
2023-04-17T07:51:07.927Z,75.34
2023-04-17T07:53:37.294Z,74.56
2023-04-17T07:56:06.833Z,74.37
2023-04-17T07:58:36.056Z,73.05
2023-04-17T08:01:07.181Z,70.30
2023-04-17T08:03:35.806Z,68.91
2023-04-17T08:06:04.340Z,70.09
2023-04-17T08:08:32.494Z,69.87
2023-04-17T08:11:00.435Z,69.78
2023-04-17T08:13:31.740Z,69.28
2023-04-17T08:15:59.786Z,67.03
2023-04-17T08:18:27.852Z,66.86
2023-04-17T08:20:55.887Z,68.23
2023-04-17T08:23:23.788Z,68.22
2023-04-17T08:25:51.873Z,68.94
2023-04-17T08:28:19.930Z,69.75
2023-04-17T08:30:47.901Z,68.05
2023-04-17T08:33:18.369Z,66.95
2023-04-17T08:35:46.435Z,66.58
2023-04-17T08:38:15.085Z,65.83
2023-04-17T08:40:47.143Z,66.25
2023-04-17T08:43:17.218Z,66.66
2023-04-17T08:45:55.471Z,67.10
2023-04-17T08:48:24.737Z,67.01
2023-04-17T08:50:54.084Z,67.23
2023-04-17T08:53:22.562Z,66.95
2023-04-17T08:55:50.718Z,66.04
2023-04-17T08:58:22.063Z,65.59
2023-04-17T09:00:50.550Z,65.96
2023-04-17T09:03:19.048Z,65.67
2023-04-17T09:05:48.582Z,65.03
2023-04-17T09:08:18.051Z,64.39
2023-04-17T09:10:54.468Z,64.58
2023-04-17T09:13:29.246Z,64.52
2023-04-17T09:16:04.709Z,64.44
2023-04-17T09:18:34.179Z,64.05
2023-04-17T09:21:04.481Z,63.66
2023-04-17T09:23:50.581Z,63.81
2023-04-17T09:26:22.059Z,63.74
2023-04-17T09:29:03.809Z,63.79
2023-04-17T09:31:34.738Z,63.25
2023-04-17T09:34:07.855Z,62.98
2023-04-17T09:36:38.413Z,63.03
2023-04-17T09:39:25.696Z,62.70
2023-04-17T09:42:05.851Z,61.43
2023-04-17T09:44:37.006Z,61.83
2023-04-17T09:47:07.912Z,61.32
2023-04-17T09:49:42.300Z,60.87
2023-04-17T09:52:12.064Z,61.37
2023-04-17T09:54:42.137Z,61.09
2023-04-17T09:57:11.516Z,60.58
2023-04-17T09:59:50.136Z,60.66
2023-04-17T10:02:20.131Z,59.99
2023-04-17T10:04:48.538Z,59.32
2023-04-17T10:07:18.115Z,59.46
2023-04-17T10:09:47.099Z,57.84
2023-04-17T10:12:18.157Z,56.78
2023-04-17T10:14:49.788Z,56.46
2023-04-17T10:17:25.192Z,53.07
2023-04-17T10:19:53.731Z,52.20
2023-04-17T10:22:22.001Z,51.67
2023-04-17T10:24:52.600Z,51.42
2023-04-17T10:27:27.137Z,50.59
2023-04-17T10:30:00.856Z,49.79
2023-04-17T10:32:30.650Z,49.51
2023-04-17T10:35:04.067Z,49.49
2023-04-17T10:37:47.602Z,49.52
2023-04-17T10:40:22.725Z,49.74
2023-04-17T10:43:11.385Z,49.92
2023-04-17T10:45:58.114Z,50.36
2023-04-17T10:48:28.515Z,50.20
2023-04-17T10:50:57.092Z,50.29
2023-04-17T10:53:45.037Z,50.28
2023-04-17T10:56:19.447Z,50.53
2023-04-17T10:59:05.655Z,49.72
2023-04-17T11:01:40.702Z,48.62
2023-04-17T11:04:09.507Z,47.19
2023-04-17T11:06:40.239Z,46.74
2023-04-17T11:09:10.570Z,46.92
2023-04-17T11:11:44.046Z,47.03
2023-04-17T11:14:15.883Z,47.97
2023-04-17T11:16:46.478Z,48.12
2023-04-17T11:19:19.854Z,49.36
2023-04-17T11:21:49.525Z,48.70
2023-04-17T11:24:24.993Z,47.00
2023-04-17T11:26:53.641Z,46.44
2023-04-17T11:29:24.303Z,46.86
2023-04-17T11:31:55.406Z,46.47
2023-04-17T11:34:25.890Z,46.42
2023-04-17T11:36:59.509Z,46.88
2023-04-17T11:39:32.738Z,46.71
2023-04-17T11:42:05.654Z,46.49
2023-04-17T11:44:33.908Z,46.29
2023-04-17T11:47:02.581Z,45.91
2023-04-17T11:49:32.913Z,45.67
2023-04-17T11:52:04.475Z,45.86
2023-04-17T11:54:40.026Z,45.88
2023-04-17T11:57:13.276Z,46.35
2023-04-17T11:59:42.915Z,46.30
2023-04-17T12:02:11.435Z,45.81
2023-04-17T12:04:40.751Z,45.06
2023-04-17T12:07:23.152Z,44.87
2023-04-17T12:09:57.895Z,44.28
2023-04-17T12:12:26.402Z,43.08
2023-04-17T12:14:54.485Z,43.28
2023-04-17T12:17:22.566Z,43.82
2023-04-17T12:19:51.254Z,43.78
2023-04-17T12:22:19.916Z,43.55
2023-04-17T12:24:47.998Z,43.38
2023-04-17T12:27:17.192Z,43.29
2023-04-17T12:29:45.464Z,42.80
2023-04-17T12:32:16.213Z,42.71
2023-04-17T12:34:44.359Z,43.23
2023-04-17T12:37:12.430Z,43.74
2023-04-17T12:39:40.716Z,44.45
2023-04-17T12:42:08.718Z,44.81
2023-04-17T12:44:36.859Z,44.72
2023-04-17T12:47:05.123Z,45.17
2023-04-17T12:49:33.311Z,44.90
2023-04-17T12:52:03.525Z,43.86
2023-04-17T12:54:33.259Z,43.36
2023-04-17T12:57:01.740Z,43.21
2023-04-17T12:59:29.999Z,43.82
2023-04-17T13:01:58.540Z,44.04
2023-04-17T13:04:27.028Z,44.30
2023-04-17T13:06:55.248Z,44.23
2023-04-17T13:09:23.309Z,44.13
2023-04-17T13:11:51.776Z,44.29
2023-04-17T13:14:19.951Z,44.67
2023-04-17T13:16:50.830Z,45.27
2023-04-17T13:19:20.179Z,45.63
2023-04-17T13:21:51.434Z,45.50
2023-04-17T13:24:19.508Z,45.01
2023-04-17T13:26:47.764Z,44.54
2023-04-17T13:29:19.113Z,44.24
2023-04-17T13:31:47.912Z,44.65
2023-04-17T13:34:16.200Z,45.04
2023-04-17T13:36:45.209Z,45.67
2023-04-17T13:39:13.845Z,45.77
2023-04-17T13:41:42.341Z,46.41
2023-04-17T13:44:10.778Z,46.47
2023-04-17T13:46:38.937Z,46.80
2023-04-17T13:49:08.090Z,47.12
2023-04-17T13:51:36.272Z,47.66
2023-04-17T13:54:04.199Z,48.66
2023-04-17T13:56:32.419Z,49.36
2023-04-17T13:59:01.154Z,49.89
2023-04-17T14:01:29.123Z,50.20
2023-04-17T14:04:00.866Z,50.32
2023-04-17T14:06:31.545Z,50.49
2023-04-17T14:08:59.607Z,50.57
2023-04-17T14:11:28.093Z,50.92
2023-04-17T14:13:56.282Z,51.45
2023-04-17T14:16:24.342Z,53.26
2023-04-17T14:18:52.816Z,55.13
2023-04-17T14:21:22.213Z,57.60
2023-04-17T14:23:51.622Z,60.09
2023-04-17T14:26:19.928Z,62.56
2023-04-17T14:28:48.174Z,64.43
2023-04-17T14:31:16.306Z,65.79
2023-04-17T14:33:44.578Z,65.66
2023-04-17T14:36:12.735Z,64.78
2023-04-17T14:38:41.065Z,64.95
2023-04-17T14:41:09.099Z,65.15
2023-04-17T14:43:37.161Z,65.29
2023-04-17T14:46:05.477Z,66.22
2023-04-17T14:48:41.138Z,67.94
2023-04-17T14:51:20.210Z,69.73
2023-04-17T14:53:48.439Z,70.02
2023-04-17T14:56:16.816Z,70.43
2023-04-17T14:58:44.835Z,70.38
2023-04-17T15:01:13.014Z,70.24
2023-04-17T15:03:43.069Z,69.88
2023-04-17T15:06:12.785Z,69.82
2023-04-17T15:08:41.889Z,70.02
2023-04-17T15:11:10.660Z,70.15
2023-04-17T15:13:40.605Z,70.43
2023-04-17T15:16:10.734Z,70.28
2023-04-17T15:18:39.616Z,70.56
2023-04-17T15:21:08.476Z,71.97
2023-04-17T15:23:37.243Z,73.11
2023-04-17T15:26:05.549Z,73.89
2023-04-17T15:28:35.861Z,74.94
2023-04-17T15:31:03.940Z,76.14
2023-04-17T15:33:32.722Z,76.94
2023-04-17T15:36:01.576Z,77.46
2023-04-17T15:38:29.599Z,77.83
2023-04-17T15:40:57.653Z,78.09
2023-04-17T15:43:26.153Z,78.58
2023-04-17T15:45:54.911Z,78.11
2023-04-17T15:48:23.092Z,78.94
2023-04-17T15:50:51.265Z,78.96
2023-04-17T15:53:19.227Z,79.07
2023-04-17T15:55:47.307Z,79.83
2023-04-17T15:58:16.389Z,79.24
2023-04-17T16:00:44.468Z,79.67
2023-04-17T16:03:12.655Z,79.30
2023-04-17T16:05:40.812Z,79.08
2023-04-17T16:08:08.987Z,78.91
2023-04-17T16:10:37.159Z,79.34
2023-04-17T16:13:05.331Z,80.57
2023-04-17T16:15:33.442Z,81.23
2023-04-17T16:18:01.734Z,81.74
2023-04-17T16:20:30.743Z,82.30
2023-04-17T16:22:58.833Z,82.44
2023-04-17T16:25:26.773Z,82.61
2023-04-17T16:27:54.783Z,83.68
2023-04-17T16:30:23.462Z,83.52
2023-04-17T16:32:51.543Z,83.17
2023-04-17T16:35:20.002Z,83.11
2023-04-17T16:37:47.970Z,83.40
2023-04-17T16:40:18.145Z,83.78
2023-04-17T16:42:46.169Z,83.98
2023-04-17T16:45:14.145Z,84.03
2023-04-17T16:47:42.358Z,84.68
2023-04-17T16:50:11.804Z,85.65
2023-04-17T16:52:41.164Z,85.10
2023-04-17T16:55:09.792Z,85.70
2023-04-17T16:57:40.220Z,85.30
2023-04-17T17:00:10.146Z,84.89
2023-04-17T17:02:38.367Z,84.29
2023-04-17T17:05:10.779Z,84.19
2023-04-17T17:07:41.619Z,83.95
2023-04-17T17:10:10.331Z,83.69
2023-04-17T17:12:38.585Z,83.88
2023-04-17T17:15:08.066Z,84.28
2023-04-17T17:17:36.381Z,83.72
2023-04-17T17:20:05.069Z,83.91
2023-04-17T17:22:33.229Z,84.18
2023-04-17T17:25:02.231Z,83.81
2023-04-17T17:27:30.274Z,83.74
2023-04-17T17:30:00.388Z,83.56
2023-04-17T17:32:28.740Z,83.34
2023-04-17T17:34:58.485Z,83.42
2023-04-17T17:37:27.694Z,83.51
2023-04-17T17:39:55.978Z,83.43
2023-04-17T17:42:24.343Z,83.55
2023-04-17T17:44:55.582Z,83.87
2023-04-17T17:47:23.876Z,84.03
2023-04-17T17:49:52.248Z,83.87
2023-04-17T17:52:20.750Z,84.38
2023-04-17T17:54:49.027Z,84.39
2023-04-17T17:57:18.497Z,84.57
2023-04-17T17:59:46.815Z,84.48
2023-04-17T18:02:15.087Z,84.22
2023-04-17T18:04:43.467Z,84.71
2023-04-17T18:07:12.117Z,84.82
2023-04-17T18:09:40.029Z,84.74
2023-04-17T18:12:08.758Z,84.85
2023-04-17T18:14:36.847Z,84.97
2023-04-17T18:17:05.012Z,84.58
2023-04-17T18:19:33.181Z,84.38
2023-04-17T18:22:01.162Z,84.33
2023-04-17T18:24:29.221Z,84.52
2023-04-17T18:26:57.494Z,85.10
2023-04-17T18:29:25.672Z,84.84
2023-04-17T18:31:54.727Z,84.91
2023-04-17T18:34:23.518Z,84.62
2023-04-17T18:36:51.734Z,84.84
2023-04-17T18:39:20.416Z,85.31
2023-04-17T18:41:48.790Z,84.90
2023-04-17T18:44:16.870Z,85.02
2023-04-17T18:46:45.007Z,84.42
2023-04-17T18:49:13.750Z,84.86
2023-04-17T18:51:47.770Z,84.84
2023-04-17T18:54:16.416Z,84.82
2023-04-17T18:56:45.198Z,84.84
2023-04-17T18:59:14.143Z,84.94
2023-04-17T19:01:45.341Z,84.94
2023-04-17T19:04:14.304Z,84.57
2023-04-17T19:06:42.497Z,84.76
2023-04-17T19:09:10.870Z,84.35
2023-04-17T19:11:41.716Z,84.68
2023-04-17T19:14:09.982Z,84.70
2023-04-17T19:16:38.306Z,84.94
2023-04-17T19:19:08.359Z,84.83
2023-04-17T19:21:37.478Z,84.78
2023-04-17T19:24:07.002Z,85.11
2023-04-17T19:26:35.251Z,85.07
2023-04-17T19:29:04.888Z,84.77
2023-04-17T19:31:33.590Z,84.53
2023-04-17T19:34:01.832Z,84.27
2023-04-17T19:36:29.900Z,83.73
2023-04-17T19:38:59.905Z,83.44
2023-04-17T19:41:28.478Z,83.14
2023-04-17T19:43:56.780Z,82.93
2023-04-17T19:46:26.004Z,82.75
2023-04-17T19:48:54.434Z,82.63
2023-04-17T19:51:22.614Z,82.85
2023-04-17T19:53:50.945Z,82.60
2023-04-17T19:56:19.279Z,82.44
2023-04-17T19:58:47.770Z,81.94
2023-04-17T20:01:16.069Z,81.40
2023-04-17T20:03:45.520Z,80.89
2023-04-17T20:06:14.258Z,80.96
2023-04-17T20:08:42.411Z,80.79
2023-04-17T20:11:12.282Z,80.62
2023-04-17T20:13:40.480Z,80.30
2023-04-17T20:16:09.176Z,79.80
2023-04-17T20:18:38.227Z,79.44
2023-04-17T20:21:06.659Z,79.06
2023-04-17T20:23:34.914Z,78.44
2023-04-17T20:26:03.420Z,77.75
2023-04-17T20:28:31.455Z,77.18
2023-04-17T20:30:59.563Z,76.66
2023-04-17T20:33:27.614Z,76.36
2023-04-17T20:35:55.771Z,76.38
2023-04-17T20:38:24.061Z,75.77
2023-04-17T20:40:52.015Z,75.06
2023-04-17T20:43:20.292Z,75.28
2023-04-17T20:45:49.314Z,75.49
2023-04-17T20:48:17.725Z,75.42
2023-04-17T20:50:46.003Z,75.51
2023-04-17T20:53:14.016Z,76.32
2023-04-17T20:55:42.073Z,76.86
2023-04-17T20:58:10.337Z,77.41
2023-04-17T21:00:47.622Z,77.45
2023-04-17T21:03:30.133Z,77.75
2023-04-17T21:05:58.424Z,78.09
2023-04-17T21:08:26.805Z,78.22
2023-04-17T21:10:54.891Z,78.22
2023-04-17T21:13:23.656Z,78.32
2023-04-17T21:15:51.662Z,78.40
2023-04-17T21:18:19.790Z,78.56
2023-04-17T21:20:47.779Z,78.81
2023-04-17T21:23:15.844Z,78.73
2023-04-17T21:25:43.911Z,78.47
2023-04-17T21:28:11.809Z,78.49
2023-04-17T21:30:40.136Z,78.38
2023-04-17T21:33:08.329Z,78.63
2023-04-17T21:35:36.909Z,78.38
2023-04-17T21:38:05.391Z,77.91
2023-04-17T21:40:33.880Z,77.22
2023-04-17T21:43:02.760Z,77.11
2023-04-17T21:45:32.112Z,76.97
2023-04-17T21:48:00.400Z,76.89
2023-04-17T21:50:28.530Z,77.37
2023-04-17T21:52:56.574Z,77.95
2023-04-17T21:55:24.592Z,78.15
2023-04-17T21:57:52.953Z,78.70
2023-04-17T22:00:22.015Z,79.00
2023-04-17T22:02:50.246Z,79.33
2023-04-17T22:05:18.466Z,79.30
2023-04-17T22:07:54.516Z,79.52
2023-04-17T22:10:24.425Z,79.71
2023-04-17T22:12:52.444Z,79.98
2023-04-17T22:15:20.566Z,79.79
2023-04-17T22:17:49.067Z,79.64
2023-04-17T22:20:17.230Z,79.56
2023-04-17T22:22:46.438Z,79.33
2023-04-17T22:25:14.508Z,79.04
2023-04-17T22:27:42.478Z,78.88
2023-04-17T22:30:11.367Z,78.74
2023-04-17T22:32:39.591Z,78.95
2023-04-17T22:35:08.714Z,78.68
2023-04-17T22:37:36.806Z,78.57
2023-04-17T22:40:05.720Z,78.25
2023-04-17T22:42:33.768Z,78.19
2023-04-17T22:45:01.941Z,77.84
2023-04-17T22:47:29.844Z,77.85
2023-04-17T22:49:59.076Z,77.88
2023-04-17T22:52:27.364Z,77.81
2023-04-17T22:54:55.862Z,77.75
2023-04-17T22:57:23.776Z,77.89
2023-04-17T22:59:51.907Z,77.83
2023-04-17T23:02:20.114Z,77.96
2023-04-17T23:04:48.584Z,77.80
2023-04-17T23:07:16.830Z,78.01
2023-04-17T23:09:46.230Z,78.60
2023-04-17T23:12:14.282Z,78.74
2023-04-17T23:14:43.694Z,78.93
2023-04-17T23:17:12.378Z,79.14
2023-04-17T23:19:40.444Z,79.35
2023-04-17T23:22:09.433Z,79.44
2023-04-17T23:24:37.617Z,79.34
2023-04-17T23:27:05.798Z,79.51
2023-04-17T23:29:33.866Z,79.37
2023-04-17T23:32:02.204Z,79.18
2023-04-17T23:34:30.228Z,79.84
2023-04-17T23:36:58.480Z,80.62
2023-04-17T23:39:26.481Z,80.64
2023-04-17T23:41:55.046Z,81.07
2023-04-17T23:44:23.140Z,81.32
2023-04-17T23:46:51.535Z,81.28
2023-04-17T23:49:19.648Z,81.54
2023-04-17T23:51:47.630Z,81.69
2023-04-17T23:54:16.126Z,81.79
2023-04-17T23:56:44.694Z,81.99
2023-04-17T23:59:12.858Z,81.79
